createdAt,value
2023-01-29T00:12:45.070Z,0.61
2023-01-29T00:32:45.069Z,0.43
2023-01-29T00:52:45.086Z,0.34
2023-01-29T01:12:45.091Z,0.36
2023-01-29T01:32:45.092Z,0.43
2023-01-29T01:52:45.115Z,0.43
2023-01-29T02:12:45.115Z,0.41
2023-01-29T02:32:45.126Z,0.46
2023-01-29T02:52:45.083Z,0.55
2023-01-29T03:12:45.050Z,0.56
2023-01-29T03:32:45.079Z,0.50
2023-01-29T03:52:45.071Z,0.47
2023-01-29T04:12:45.080Z,0.42
2023-01-29T04:32:45.090Z,0.42
2023-01-29T04:52:45.108Z,0.43
2023-01-29T05:12:45.176Z,0.49
2023-01-29T05:32:45.129Z,0.56
2023-01-29T05:52:45.130Z,0.55
2023-01-29T06:12:45.160Z,0.55
2023-01-29T06:32:45.228Z,0.43
2023-01-29T06:52:45.171Z,0.38
2023-01-29T07:12:45.182Z,0.43
2023-01-29T07:32:45.187Z,0.55
2023-01-29T07:52:45.218Z,0.57
2023-01-29T08:12:45.406Z,0.65
2023-01-29T08:32:45.270Z,0.73
2023-01-29T08:52:45.352Z,0.78
2023-01-29T09:12:45.240Z,0.73
2023-01-29T09:32:45.154Z,0.74
2023-01-29T09:52:45.220Z,0.76
2023-01-29T10:12:45.319Z,0.86
2023-01-29T10:32:45.150Z,0.89
2023-01-29T10:52:45.162Z,0.94
2023-01-29T11:12:45.206Z,1.15
2023-01-29T11:32:45.314Z,1.27
2023-01-29T11:52:45.348Z,1.34
2023-01-29T12:12:45.329Z,1.50
2023-01-29T12:32:45.283Z,1.34
2023-01-29T12:52:45.371Z,1.34
2023-01-29T13:12:45.243Z,1.20
2023-01-29T13:32:45.268Z,1.27
2023-01-29T13:52:45.161Z,1.26
2023-01-29T14:12:45.173Z,1.19
2023-01-29T14:32:45.336Z,1.13
2023-01-29T14:52:45.325Z,1.15
2023-01-29T15:12:45.349Z,1.05
2023-01-29T15:32:45.414Z,0.90
2023-01-29T15:52:45.234Z,0.70
2023-01-29T16:12:45.241Z,0.59
2023-01-29T16:32:45.252Z,0.47
2023-01-29T16:52:45.258Z,0.42
2023-01-29T17:12:45.272Z,0.49
2023-01-29T17:32:45.301Z,0.40
2023-01-29T17:52:45.320Z,0.56
2023-01-29T18:12:45.396Z,0.59
2023-01-29T18:32:45.311Z,0.66
2023-01-29T18:52:45.217Z,0.76
2023-01-29T19:12:45.222Z,0.58
2023-01-29T19:32:45.301Z,0.61
2023-01-29T19:52:45.238Z,0.53
2023-01-29T20:12:45.249Z,0.43
2023-01-29T20:32:45.328Z,0.27
2023-01-29T20:52:45.265Z,0.12
2023-01-29T21:12:45.262Z,-0.11
2023-01-29T21:32:45.259Z,-0.45
2023-01-29T21:52:45.283Z,-0.56
2023-01-29T22:12:45.283Z,-0.61
2023-01-29T22:32:45.342Z,-0.59
2023-01-29T22:52:45.319Z,-0.72
2023-01-29T23:12:45.312Z,-0.95
2023-01-29T23:32:45.320Z,-1.16
2023-01-29T23:52:45.326Z,-1.07
